Date,TemperatureHighF,TemperatureAvgF,TemperatureLowF,DewpointHighF,DewpointAvgF,DewpointLowF,HumidityHigh,HumidityAvg,HumidityLow,PressureMaxIn,PressureMinIn,WindSpeedMaxMPH,WindSpeedAvgMPH,GustSpeedMaxMPH,PrecipitationSumIn
2013-1-1,27.9,21.4,13.7,21.0,13.2,5.8,78,70,59,29.94,29.79,4,0,4,0.00
2013-1-2,25.0,21.3,16.4,19.3,15.4,11.0,82,78,73,29.96,29.83,6,0,6,0.00
2013-1-3,28.8,23.7,18.4,25.1,18.4,10.4,87,80,71,29.93,29.81,5,1,5,0.00
2013-1-4,33.1,28.0,25.0,23.8,21.5,19.6,83,76,66,29.95,29.76,10,3,10,0.00
2013-1-5,34.0,27.5,20.2,28.8,23.0,16.3,90,83,74,30.05,29.81,6,1,6,0.00
2013-1-6,35.3,33.3,31.1,32.4,29.7,27.1,91,87,80,30.04,29.69,5,2,6,0.02
2013-1-7,36.4,31.5,29.3,27.5,25.3,22.9,86,78,68,30.15,29.92,10,3,10,0.02
2013-1-8,36.4,30.5,24.1,28.8,24.9,20.0,85,80,73,30.03,29.93,5,1,5,0.01
2013-1-9,45.7,37.5,30.8,34.1,29.0,25.0,88,73,49,30.21,29.81,10,2,10,0.02
2013-1-10,39.4,33.1,23.8,31.2,27.1,18.5,87,79,71,30.37,29.99,3,0,3,0.00
2013-1-11,53.6,42.9,34.7,50.8,40.1,31.1,95,90,82,29.99,29.57,6,1,6,0.00
2013-1-12,59.4,50.2,45.5,50.8,46.3,43.4,94,87,70,29.75,29.63,6,1,6,0.00
2013-1-13,47.9,38.8,31.0,44.8,36.1,27.5,92,90,84,29.81,29.52,4,1,5,0.69
2013-1-14,31.0,24.3,20.0,27.9,18.6,14.8,88,78,70,30.21,29.81,2,0,2,0.01
2013-1-15,30.6,23.9,17.3,21.2,17.5,13.1,85,77,64,30.21,29.93,2,0,2,0.00
2013-1-16,38.5,28.2,21.2,27.9,20.0,16.6,85,72,42,29.93,29.58,9,2,9,0.00
2013-1-17,33.8,28.1,17.1,28.3,19.6,6.1,81,71,59,30.08,29.72,8,2,8,0.00
2013-1-18,34.6,23.4,14.9,23.8,14.5,6.6,80,69,56,30.20,29.74,10,2,12,0.00
2013-1-19,45.4,40.4,33.8,35.6,30.4,23.6,73,67,61,29.74,29.34,10,4,12,0.00
2013-1-20,43.6,22.3,15.1,35.0,10.4,4.5,72,60,42,29.94,29.32,13,2,14,0.00
2013-1-21,17.8,12.8,4.7,10.8,3.9,-4.3,80,67,53,29.92,29.71,9,1,9,0.00
2013-1-22,10.8,4.3,-1.4,-0.1,-4.6,-11.0,77,66,54,30.02,29.84,8,1,10,0.00
2013-1-23,16.9,9.7,2.7,10.7,3.5,-3.5,82,76,68,30.03,29.83,5,1,6,0.00
2013-1-24,20.7,13.0,8.1,9.3,5.3,0.5,83,72,51,30.33,29.87,9,1,9,0.00
2013-1-25,22.7,17.5,12.4,16.6,11.1,3.8,83,76,68,30.27,29.79,2,0,2,0.00
2013-1-26,27.4,21.1,13.1,18.6,14.7,6.2,85,77,64,30.21,29.82,5,0,5,0.00
2013-1-27,28.6,21.0,10.6,24.5,14.5,4.1,88,76,66,30.24,29.91,2,0,4,0.00
2013-1-28,43.6,35.9,27.7,42.2,33.7,24.7,95,92,88,29.95,29.63,6,1,6,0.45
2013-1-29,54.4,43.7,33.7,53.2,41.9,30.7,96,94,89,29.83,29.30,8,1,8,1.01
2013-1-30,58.5,55.4,53.8,56.0,53.6,52.4,95,93,91,29.30,29.07,9,2,9,0.09
2013-3-3,22.1,21.6,20.9,16.0,15.1,14.1,77,76,75,29.82,29.81,2,1,2,0.00
2013-3-4,38.3,24.6,13.1,21.6,15.1,7.4,83,68,46,29.91,29.82,5,1,6,0.00
2013-3-5,39.8,27.8,16.0,28.4,20.3,9.5,83,74,61,29.92,29.65,5,1,5,0.00
2013-3-6,41.2,33.1,25.9,32.4,27.3,21.2,87,79,68,29.99,29.65,6,1,6,0.00
2013-3-7,34.9,32.0,27.0,29.9,26.9,20.3,89,81,74,30.17,29.98,7,1,7,0.00
2013-3-8,49.0,32.7,22.3,34.4,24.3,17.4,83,72,54,30.27,30.17,4,0,4,0.00
2013-3-9,45.0,34.9,26.3,34.3,28.5,22.1,86,77,64,30.21,29.85,5,0,5,0.00
2013-3-10,60.5,48.0,34.9,47.5,38.3,30.3,85,70,53,29.85,29.61,8,1,8,0.00
2013-3-11,53.1,48.0,38.0,46.6,42.6,32.6,91,82,64,29.63,29.28,10,2,10,0.00
2013-3-12,38.0,34.6,30.4,32.8,28.9,23.9,85,80,69,29.70,29.47,10,3,10,0.00
2013-3-13,33.7,28.7,24.7,27.0,20.7,15.2,88,72,52,29.94,29.63,11,3,11,0.00
2013-3-14,26.6,23.8,22.0,17.3,15.1,14.3,76,69,63,30.01,29.94,10,1,10,0.00
2013-3-15,35.1,33.4,31.5,30.8,29.2,27.1,85,84,84,29.68,29.66,2,0,2,0.00
2013-3-16,32.6,29.1,26.3,27.2,24.0,19.7,87,81,73,29.81,29.57,4,0,4,0.00
2013-3-17,34.9,26.9,21.1,23.0,17.4,11.8,80,68,53,30.06,29.81,5,1,5,0.00
2013-3-18,34.7,28.9,20.9,32.0,24.1,12.2,92,82,69,29.99,29.35,6,1,6,0.00
2013-3-19,34.4,26.6,23.6,30.5,20.5,16.2,86,78,69,29.70,29.39,12,4,12,0.00
2013-3-20,29.2,23.8,17.6,18.9,14.9,10.5,79,68,56,29.71,29.65,9,2,10,0.00
2013-3-21,31.9,24.1,15.3,24.8,18.2,9.8,84,78,71,29.70,29.61,8,2,8,0.00
2013-3-22,38.3,29.5,24.5,26.7,20.8,17.4,75,70,60,29.81,29.69,8,2,8,0.00
2013-3-23,39.6,32.0,27.4,27.6,23.4,19.8,79,71,59,29.89,29.80,5,1,5,0.00
2013-3-24,37.8,29.7,22.7,29.2,22.9,17.2,85,76,59,29.86,29.46,9,1,9,0.00
2013-3-25,38.9,34.2,30.6,28.8,26.4,24.1,79,73,65,29.70,29.39,10,3,10,0.00
2013-3-26,43.7,36.2,32.6,32.2,28.8,26.6,82,75,56,29.89,29.70,8,2,8,0.00
2013-3-27,45.7,37.9,29.9,30.4,27.0,24.0,81,66,51,29.97,29.88,9,3,9,0.00
2013-3-28,52.6,40.5,32.6,31.6,27.4,24.3,76,61,40,30.05,29.97,8,2,8,0.00
2013-3-29,54.4,41.3,31.0,27.5,23.6,20.4,69,51,32,30.07,29.99,9,1,9,0.00
2013-3-30,56.7,43.0,27.4,29.3,23.5,18.9,73,49,24,30.01,29.73,7,1,7,0.00
2013-3-31,58.7,46.2,38.3,42.4,33.7,24.8,81,63,41,29.74,29.42,9,2,9,0.02
2013-4-1,42.7,31.6,26.8,34.7,18.1,12.4,82,58,41,29.87,29.47,12,3,12,0.00
2013-4-2,40.5,30.5,22.9,18.5,14.8,11.4,79,54,34,30.02,29.86,12,2,12,0.00
2013-4-3,44.8,32.1,23.4,17.8,14.2,10.9,68,49,31,30.20,30.01,16,2,16,0.00
2013-4-4,57.2,40.3,28.3,22.1,18.1,15.4,65,44,21,30.15,29.75,8,2,8,0.00
2013-4-5,47.2,39.8,31.5,29.2,21.9,16.8,74,50,33,30.02,29.74,11,2,11,0.00
2013-4-6,50.0,37.4,28.6,28.5,21.9,16.5,65,54,36,30.05,29.60,5,1,5,0.00
2013-4-7,56.3,48.0,35.3,46.2,36.1,27.3,73,64,43,29.84,29.41,12,3,13,0.01
2013-4-8,61.9,43.1,32.8,53.9,37.0,26.0,89,79,62,29.86,29.52,15,1,15,0.10
2013-4-9,48.1,43.8,40.3,43.9,40.4,37.0,92,88,80,29.91,29.70,9,1,9,0.89
2013-4-10,43.0,40.0,37.1,41.0,37.9,34.8,93,92,91,29.88,29.64,10,2,14,0.36
2013-4-11,38.0,36.3,34.9,35.6,34.1,32.8,92,92,90,29.80,29.45,6,1,6,0.99
2013-4-12,41.6,37.7,34.2,38.9,34.6,32.3,94,89,77,29.56,29.33,10,2,10,0.30
2013-4-13,41.2,38.4,36.4,37.2,31.4,28.3,89,76,65,29.78,29.55,12,3,12,0.00
2013-4-14,50.9,40.2,33.5,39.5,31.8,27.1,80,72,58,29.91,29.77,4,1,5,0.01
2013-4-15,67.7,54.1,37.8,53.0,45.1,31.8,84,72,57,29.78,29.70,7,1,7,0.02
2013-4-16,60.7,54.1,45.4,53.3,43.0,34.2,89,68,38,30.05,29.68,9,2,9,0.01
2013-4-17,61.6,47.0,38.0,43.1,36.1,29.8,88,67,47,30.16,29.86,5,1,5,0.71
2013-4-18,77.0,54.7,43.7,65.0,50.1,40.4,92,85,62,29.86,29.39,10,1,10,0.60
2013-4-19,58.9,44.7,36.7,56.4,38.0,29.1,93,77,63,29.53,29.14,12,2,12,0.47
2013-4-20,39.2,33.9,29.2,30.8,22.3,16.7,84,62,53,30.23,29.52,11,3,11,0.01
2013-4-21,51.5,38.3,24.8,32.5,25.9,19.0,83,62,44,30.41,30.23,5,0,5,0.00
2013-4-22,64.6,47.5,31.9,38.4,31.9,24.0,81,57,33,30.27,30.02,3,0,3,0.01
2013-4-23,69.5,56.4,41.2,52.6,42.3,32.3,86,61,42,30.02,29.64,10,1,12,0.18
2013-4-24,55.4,40.5,34.7,51.5,36.7,29.6,91,86,72,29.91,29.56,9,2,9,0.67
2013-4-25,52.0,42.4,34.2,41.3,32.3,27.0,85,69,44,30.14,29.89,11,2,11,0.09
2013-4-26,62.1,46.6,32.8,40.2,32.4,25.7,79,59,43,30.25,30.13,6,1,6,0.03
2013-4-27,72.0,54.4,39.6,43.9,37.1,31.6,79,55,30,30.17,29.94,5,1,5,0.00
2013-4-28,57.8,51.9,44.5,50.4,44.5,32.3,90,76,50,29.94,29.66,2,0,2,0.18
2013-4-29,69.8,59.3,52.7,57.6,52.7,49.8,93,80,58,29.76,29.65,4,0,4,0.01
2013-4-30,73.4,62.0,51.3,58.3,53.6,46.7,89,75,56,29.92,29.76,6,1,6,0.26
2013-5-1,83.5,67.3,51.1,62.4,55.2,46.5,87,67,46,30.08,29.90,4,0,4,0.00
2013-5-2,79.9,65.9,53.6,57.0,50.2,43.4,77,58,40,30.09,29.98,5,1,5,0.13
2013-5-3,79.2,66.1,54.4,56.3,45.3,38.0,63,49,25,29.99,29.91,4,0,4,0.00
2013-5-4,75.2,63.7,54.7,46.9,43.2,37.8,69,49,30,29.97,29.91,4,0,4,0.00
2013-5-5,78.8,61.7,46.4,46.2,40.6,37.1,77,49,25,29.94,29.86,4,0,4,0.00
2013-5-6,78.7,61.6,44.5,54.1,43.8,35.7,74,54,38,29.90,29.82,3,0,3,0.00
2013-5-7,82.1,64.4,47.7,56.5,48.0,38.1,72,57,37,29.90,29.83,4,0,4,0.00
2013-5-8,82.3,65.7,49.5,55.2,49.0,41.7,77,56,36,29.86,29.77,4,0,4,0.00
2013-5-9,81.2,67.0,50.4,54.5,47.4,41.8,82,52,30,29.81,29.73,5,0,5,0.00
2013-5-10,66.4,56.1,40.5,60.0,49.1,37.2,89,78,44,29.74,29.58,9,2,9,0.27
2013-5-11,62.3,45.8,39.1,47.4,39.4,32.7,91,79,53,29.69,29.53,12,2,12,0.04
2013-5-12,47.7,40.8,35.8,33.7,30.0,24.5,80,66,50,29.88,29.65,12,3,12,0.00
2013-5-13,55.8,43.1,31.7,29.8,26.4,23.0,72,54,32,29.96,29.87,8,2,10,0.00
2013-5-14,69.3,53.6,41.6,48.2,39.5,29.1,71,59,45,29.92,29.56,4,0,5,0.02
2013-5-15,81.4,68.6,52.0,59.0,49.6,43.8,88,54,30,29.63,29.41,9,2,10,0.01
2013-5-16,83.5,67.1,53.5,50.4,44.1,36.7,59,45,27,29.88,29.62,9,1,9,0.00
2013-5-17,72.0,58.7,45.5,49.2,42.8,36.6,74,57,42,30.00,29.87,4,0,4,0.00
2013-5-18,82.1,66.0,52.7,53.1,46.4,41.0,72,51,30,29.99,29.88,4,0,4,0.00
2013-5-19,90.0,71.0,53.6,66.3,56.3,44.2,73,61,43,29.89,29.73,4,0,4,0.00
2013-5-20,91.3,75.6,60.1,71.4,62.5,54.0,85,66,40,29.78,29.62,7,1,7,0.01
2013-5-21,84.8,75.7,67.3,68.0,62.1,57.8,84,64,45,29.68,29.57,8,2,8,0.08
2013-5-22,79.4,70.8,64.4,65.7,61.9,58.8,84,74,52,29.60,29.46,11,1,11,0.05
2013-5-23,64.4,54.5,40.9,59.5,50.6,36.3,89,86,81,29.95,29.51,7,1,8,0.17
2013-5-24,57.4,45.1,36.7,40.0,35.0,31.3,87,69,50,30.16,29.95,8,2,8,0.02
2013-5-25,64.3,51.0,35.6,42.3,36.1,29.9,83,59,34,30.20,30.10,7,1,7,0.01
2013-5-26,72.2,51.6,37.3,44.4,35.7,30.7,83,58,34,30.16,30.07,6,1,6,0.00
2013-5-27,64.8,55.7,38.0,47.4,42.3,30.8,88,63,40,30.09,29.86,5,0,5,0.24
2013-5-28,73.4,59.0,50.8,69.5,56.2,47.2,93,90,85,29.86,29.65,4,0,4,1.18
2013-5-29,82.8,71.7,63.9,67.8,64.8,59.7,93,79,51,29.84,29.57,8,1,9,0.19
2013-5-30,86.0,73.3,64.6,72.5,65.9,60.7,88,78,58,29.90,29.82,7,1,7,0.49
2013-5-31,81.9,72.6,67.1,69.6,65.8,63.0,90,80,63,29.84,29.69,10,2,10,0.22
2013-6-1,79.9,71.3,64.3,67.6,64.0,60.4,92,79,60,29.72,29.52,8,2,8,0.08
2013-6-2,70.7,64.3,52.7,63.0,55.8,43.8,84,74,62,29.81,29.49,9,3,9,0.00
2013-6-3,70.7,56.4,44.3,47.6,42.3,38.2,82,61,41,29.91,29.81,6,1,8,0.00
2013-6-4,74.9,59.6,46.1,51.1,44.4,39.7,80,59,39,30.02,29.91,4,0,4,0.00
2013-6-5,78.5,62.0,46.8,52.7,45.9,38.4,77,57,38,30.01,29.84,3,0,3,0.00
2013-6-6,66.4,59.2,55.1,55.2,48.0,42.4,78,67,59,29.85,29.70,6,1,6,0.01
2013-6-7,60.5,55.5,51.8,53.3,49.9,45.7,87,82,76,29.74,29.69,6,1,6,0.00
2013-6-8,75.4,62.9,55.4,58.8,53.4,50.1,84,72,55,29.92,29.73,3,0,3,0.00
2013-6-9,76.3,66.1,53.6,60.5,54.1,47.5,87,66,52,29.96,29.81,3,0,3,0.00
2013-6-10,71.6,64.9,59.9,66.5,60.0,50.1,91,85,57,29.81,29.58,2,0,2,1.07
2013-6-11,81.4,70.9,62.5,66.8,63.5,60.1,93,78,58,29.71,29.60,7,1,7,0.00
2013-6-12,76.7,70.0,62.8,68.2,63.9,58.6,88,81,73,29.77,29.49,5,0,5,0.04
2013-6-13,78.1,68.6,61.0,63.1,58.1,53.3,92,71,45,29.76,29.42,11,3,11,0.86
2013-6-14,78.8,66.2,56.7,57.3,53.3,50.2,84,65,41,29.91,29.76,8,2,8,0.00
2013-6-15,77.4,67.4,56.0,63.5,57.2,48.6,85,70,52,29.91,29.75,5,1,5,0.00
2013-6-16,82.3,72.2,64.6,65.8,61.3,55.7,90,71,42,29.75,29.59,7,2,7,0.25
2013-6-17,86.4,71.3,60.1,65.1,57.8,54.3,82,64,38,29.77,29.68,10,1,10,0.10
2013-6-18,73.4,62.8,52.9,56.3,50.0,41.4,88,65,41,29.91,29.74,10,2,10,0.01
2013-6-19,81.7,63.4,46.3,54.8,47.5,39.7,82,58,37,30.00,29.91,4,0,4,0.00
2013-6-20,84.6,67.5,51.1,58.8,51.9,44.5,82,60,34,30.05,29.98,5,1,5,0.00
2013-6-21,86.2,72.5,57.2,68.8,58.8,49.1,79,63,46,30.05,29.89,5,0,5,0.00
2013-6-22,90.7,78.2,69.1,72.3,66.3,58.3,78,67,51,29.94,29.82,6,2,6,0.00
2013-6-23,91.4,81.0,71.6,70.7,67.7,65.5,86,66,45,29.90,29.81,0,0,0,0.00
2013-6-24,90.9,79.0,69.3,71.1,67.1,63.6,86,68,47,29.90,29.76,8,1,8,0.82
2013-6-25,83.9,73.2,67.5,71.8,67.0,63.4,90,81,65,29.81,29.67,7,1,7,0.38
2013-6-26,91.6,77.2,66.4,73.1,67.6,62.4,90,74,53,29.71,29.60,6,1,6,0.00
2013-6-27,87.3,74.8,66.2,72.7,67.7,62.8,91,79,56,29.62,29.47,6,0,6,3.14
2013-6-28,77.8,68.5,65.0,67.6,63.7,61.0,93,85,65,29.50,29.37,8,1,10,0.08
2013-6-29,75.8,68.9,63.5,63.7,60.7,55.3,91,76,59,29.58,29.38,8,1,8,0.00
2013-6-30,81.0,69.4,59.6,62.7,57.8,45.2,86,68,48,29.79,29.58,8,1,8,0.00
2013-7-1,69.5,63.6,59.0,58.9,53.9,45.6,84,71,54,29.91,29.78,10,2,10,0.11
2013-7-2,77.4,67.1,58.9,64.4,58.8,53.1,85,75,63,29.92,29.86,4,0,4,0.00
2013-7-3,85.3,71.6,58.7,70.7,62.0,54.7,90,73,47,29.94,29.88,5,1,5,0.00
2013-7-4,82.3,75.5,70.0,68.7,64.8,61.3,88,70,55,29.96,29.91,6,1,6,0.00
2013-7-5,89.3,77.1,68.8,69.2,65.2,61.9,87,68,46,29.96,29.89,4,0,4,0.00
2013-7-6,88.6,77.0,69.5,71.1,67.1,62.8,86,72,54,29.94,29.83,5,0,5,0.07
2013-7-7,81.7,75.3,70.6,70.0,68.1,67.1,91,79,62,29.87,29.79,5,1,5,0.05
2013-7-8,85.3,74.1,69.8,75.3,68.4,65.1,91,83,71,29.86,29.80,5,1,5,0.00
2013-7-9,90.7,77.1,70.9,73.0,70.1,68.1,92,80,52,29.82,29.70,9,1,9,0.05
2013-7-10,88.7,78.2,68.0,73.9,68.8,56.0,93,74,53,29.78,29.60,8,2,8,0.39
2013-7-11,81.2,69.9,60.8,61.8,56.8,54.0,79,64,46,29.91,29.77,5,2,5,0.00
2013-7-12,88.6,69.1,56.5,65.6,58.4,50.9,89,70,42,29.99,29.90,5,1,5,0.00
2013-7-13,90.4,74.8,58.7,66.3,60.7,53.6,88,64,43,30.06,29.97,4,0,4,0.00
2013-7-14,95.0,79.9,63.7,73.6,67.6,58.2,86,67,48,30.10,30.05,3,0,3,0.00
2013-7-15,94.3,79.2,69.7,79.9,71.2,63.9,86,77,60,30.14,30.07,5,0,5,1.06
2013-7-16,94.7,82.9,72.2,77.7,74.0,68.3,91,76,56,30.15,30.07,5,0,5,0.00
2013-7-17,95.6,85.4,76.9,77.5,74.1,69.7,81,70,51,30.11,29.98,5,1,5,0.00
2013-7-18,95.6,85.2,76.7,76.1,72.7,69.7,80,67,50,30.00,29.79,6,1,6,0.01
2013-7-19,94.0,84.0,75.2,74.8,71.9,66.1,81,68,47,29.81,29.55,13,3,13,0.32
2013-7-20,87.8,76.4,69.1,70.4,64.6,59.1,89,69,41,29.78,29.57,12,1,12,0.55
2013-7-21,87.5,72.5,60.8,66.5,59.7,53.3,77,65,49,29.85,29.76,5,0,5,0.00
2013-7-22,87.8,75.0,66.4,69.4,62.8,57.1,83,67,47,29.81,29.60,4,0,4,0.00
2013-7-23,77.6,70.8,60.8,71.6,64.1,50.3,89,80,59,29.70,29.51,13,2,13,0.27
2013-7-24,76.7,64.1,56.0,57.1,51.3,48.1,76,64,45,29.89,29.70,8,2,8,0.00
2013-7-25,82.4,65.5,50.0,59.0,52.7,44.9,85,65,39,29.94,29.87,5,0,5,0.00
2013-7-26,83.2,70.9,58.5,61.0,57.1,52.2,83,63,43,29.94,29.74,5,1,5,0.00
2013-7-27,76.3,66.5,56.9,67.2,60.7,51.9,88,82,65,29.74,29.57,9,1,9,0.40
2013-7-28,64.8,57.6,52.4,56.2,51.8,48.2,87,81,68,29.79,29.65,7,2,7,0.03
2013-7-29,72.4,61.9,56.3,59.5,54.7,52.0,87,78,61,29.99,29.79,6,1,6,0.00
2013-7-30,83.7,67.5,54.4,61.5,56.5,50.0,89,70,42,30.05,29.95,5,0,5,0.00
2013-7-31,73.6,67.2,62.5,67.3,61.9,55.4,92,83,72,29.96,29.70,6,0,6,0.31
2013-8-1,79.7,68.4,63.7,64.4,60.4,55.7,92,77,49,29.74,29.69,8,2,10,0.00
2013-8-2,74.9,66.3,58.9,63.1,58.3,53.4,88,76,59,29.75,29.67,8,2,8,0.00
2013-8-3,78.1,68.6,59.2,62.7,57.3,53.1,88,69,47,29.88,29.71,9,2,9,0.00
2013-8-4,76.7,64.2,55.1,58.4,53.5,49.5,86,69,47,29.98,29.88,9,2,9,0.00
2013-8-5,73.4,63.3,54.2,57.7,52.5,47.6,83,69,47,29.94,29.80,4,0,4,0.00
2013-8-6,80.5,69.6,63.0,67.1,62.0,54.9,88,77,62,29.80,29.73,4,0,4,0.06
2013-8-7,85.3,74.0,64.3,70.8,65.5,60.4,91,76,56,29.74,29.65,14,1,14,0.12
2013-8-8,81.2,69.7,63.7,67.8,62.6,56.5,90,79,56,29.85,29.72,6,1,6,0.01
2013-8-9,81.9,69.7,58.5,62.0,57.4,53.6,85,67,44,29.83,29.76,8,1,8,0.00
2013-8-10,80.5,69.4,59.0,60.5,57.2,52.6,85,66,45,29.96,29.83,6,1,6,0.00
2013-8-11,78.8,69.6,62.1,63.5,58.6,53.5,80,69,53,29.95,29.86,7,1,7,0.00
2013-8-12,70.4,66.8,62.6,65.3,62.0,55.6,91,85,75,29.89,29.67,6,1,6,0.17
2013-8-13,67.0,61.5,54.4,63.6,52.9,45.5,92,74,54,29.86,29.65,10,2,10,0.00
2013-8-14,74.7,60.3,49.1,54.3,49.3,44.3,88,69,41,29.96,29.86,8,2,8,0.00
2013-8-15,74.9,61.3,51.3,53.2,49.3,44.8,81,66,46,29.99,29.91,5,1,5,0.00
2013-9-7,77.4,74.0,67.0,67.6,64.1,54.4,78,71,64,29.76,29.67,3,2,4,0.00
2013-9-8,74.5,68.3,56.9,65.8,56.4,48.6,86,67,51,29.86,29.69,5,2,5,0.00
2013-9-9,79.9,65.0,52.7,69.5,58.3,47.1,87,79,70,29.84,29.68,1,0,1,0.00
2013-9-10,94.3,81.6,70.4,71.4,68.4,65.0,87,67,40,29.78,29.65,8,2,8,0.00
2013-9-11,91.3,79.8,69.7,72.3,68.3,65.3,88,69,54,29.79,29.67,5,2,5,1.12
2013-9-12,70.0,69.8,69.5,66.2,65.6,65.1,88,87,86,29.70,29.68,2,1,2,0.00
2013-10-22,42.8,42.1,41.4,33.1,32.7,32.4,71,69,67,29.68,25.67,3,1,3,0.00
2013-10-23,47.3,39.5,33.5,33.7,30.5,26.6,87,71,48,29.72,29.61,12,2,12,0.00
2013-10-24,47.3,37.9,31.3,33.5,30.2,27.8,90,75,53,29.94,29.70,13,2,13,0.00
2013-10-25,45.7,38.4,32.2,35.2,30.7,28.4,90,75,53,30.10,29.86,9,2,9,0.00
2013-10-26,50.4,42.8,38.2,38.0,32.4,28.4,86,67,57,29.88,29.55,11,4,11,0.06
2013-10-27,52.2,41.7,34.6,36.9,32.7,30.2,85,71,55,29.86,29.77,6,1,6,0.00
2013-10-28,48.8,42.3,38.0,39.8,33.7,30.1,80,71,63,30.20,29.84,7,1,7,0.00
2013-10-29,48.1,41.8,38.2,35.3,32.6,29.6,77,70,59,30.24,30.05,4,0,4,0.00
2013-10-30,63.2,46.6,32.0,49.0,38.3,26.9,89,74,56,30.06,29.77,3,0,4,0.04
2013-10-31,61.4,58.6,52.0,59.4,56.1,46.4,94,91,81,29.78,28.99,13,2,13,1.10
2013-11-1,60.7,50.7,45.9,58.5,44.3,39.3,93,79,67,29.47,28.91,21,7,21,0.03
2013-11-2,46.1,42.8,34.9,42.9,39.3,30.5,91,87,82,29.90,29.45,8,2,8,0.22
2013-11-3,45.4,35.4,32.6,36.2,30.9,27.5,90,84,69,30.25,29.89,4,0,4,0.00
2013-11-4,46.3,39.2,31.9,35.1,31.1,26.6,86,73,57,30.28,30.10,5,1,5,0.00
2013-11-5,53.5,45.2,41.4,46.1,38.8,34.7,86,78,72,30.15,30.00,9,2,9,0.00
2013-11-6,55.3,51.4,42.7,51.7,47.7,38.4,91,87,70,29.97,29.60,15,4,15,0.26
2013-11-7,42.7,39.1,34.4,38.7,31.4,26.9,89,74,57,29.91,29.77,10,2,10,0.03
2013-11-8,45.4,36.2,30.4,30.9,27.5,24.8,86,71,50,30.06,29.89,8,2,8,0.00
2013-11-9,54.0,45.9,36.0,41.9,35.6,28.2,80,68,57,29.98,29.59,15,4,15,0.00
2013-11-10,47.2,42.3,37.1,35.2,31.5,28.5,77,66,56,30.05,29.68,13,3,13,0.01
2013-11-11,42.1,36.0,27.0,37.5,30.2,20.7,88,79,71,30.05,29.81,11,3,13,0.13
2013-11-12,33.7,27.5,23.0,22.2,18.8,14.7,81,70,56,30.27,30.00,11,2,11,0.01
2013-11-13,41.8,29.1,22.0,24.2,17.6,12.1,82,65,32,30.28,29.78,16,5,16,0.00
2013-11-14,50.8,38.7,29.5,29.0,22.4,18.3,66,53,42,29.88,29.49,15,5,15,0.00
2013-11-15,50.9,42.9,37.1,30.8,27.0,23.9,62,54,43,29.81,29.15,8,2,8,0.00
2013-11-16,53.8,44.7,35.3,49.4,38.1,27.5,86,78,64,29.86,29.60,4,1,5,0.00
2013-11-17,59.4,53.3,45.9,56.8,48.3,40.3,92,83,72,29.24,29.03,26,9,26,0.30
2013-11-18,46.6,42.3,34.6,41.0,33.8,24.3,81,72,66,29.90,29.24,16,6,17,0.00
2013-11-19,42.8,33.9,29.9,26.8,23.5,20.9,73,66,51,30.20,29.90,9,2,9,0.00
2013-11-20,45.2,33.9,24.3,34.3,26.4,19.1,86,74,58,30.24,30.04,5,0,5,0.00
2013-11-21,47.2,42.6,36.9,41.7,36.6,29.1,90,79,71,30.08,29.97,6,1,6,0.21
2013-11-22,44.8,40.4,28.8,42.9,37.1,24.3,93,88,78,30.13,29.93,10,2,10,0.07
2013-11-23,28.3,24.1,16.4,23.8,16.2,6.7,87,72,51,30.25,30.02,13,3,13,0.00
2013-11-24,24.8,19.0,14.6,14.1,10.3,8.4,80,69,54,30.33,30.16,8,2,10,0.00
2013-11-25,30.8,25.3,19.8,25.0,15.6,9.2,85,67,52,30.17,29.84,13,5,13,0.00
2013-11-26,33.1,31.1,29.0,27.7,26.6,25.0,87,83,80,29.88,29.70,10,2,10,0.00
2013-11-27,30.1,22.8,18.4,26.1,14.8,9.6,85,71,59,29.94,29.68,17,3,17,0.00
2013-11-28,27.0,22.4,16.9,21.2,16.1,9.8,82,76,69,30.19,29.94,6,1,6,0.00
2013-11-29,35.6,24.5,14.2,26.3,17.8,8.7,85,76,61,30.42,30.19,4,0,4,0.01
2013-11-30,44.6,34.0,25.2,30.6,26.0,20.0,83,73,56,30.33,29.88,8,2,10,0.00
2013-12-1,42.8,36.2,33.5,34.5,30.0,26.5,87,78,71,29.88,29.78,6,1,7,0.00
2013-12-2,38.5,33.1,26.3,29.5,25.7,20.0,87,75,59,29.78,29.68,8,1,8,0.00
2013-12-3,36.0,31.7,23.0,33.1,27.5,17.7,90,85,77,29.72,29.65,3,0,3,0.02
2013-12-4,53.6,43.4,35.8,50.5,40.7,33.1,93,90,87,29.71,29.44,7,1,7,0.02
2013-12-5,56.9,42.7,30.2,53.5,35.1,21.4,91,75,63,29.92,29.42,15,4,18,0.00
2013-12-6,30.2,25.4,19.8,22.0,17.1,12.3,73,70,66,30.15,29.89,7,2,7,0.00
2013-12-7,24.8,19.7,15.1,13.2,10.1,6.9,76,66,54,30.37,30.15,8,2,8,0.00
2013-12-8,27.0,19.8,13.5,22.8,13.1,6.4,84,75,68,30.35,29.77,5,1,5,0.00
2013-12-9,29.5,26.6,19.8,26.7,21.6,10.8,89,81,68,29.84,29.64,17,6,17,0.00
2013-12-10,21.8,18.1,12.8,16.3,9.7,3.8,81,70,49,29.93,29.70,17,5,17,0.00
2013-12-11,23.2,17.6,7.7,16.4,10.7,0.8,83,74,65,30.19,29.92,12,3,14,0.00
2013-12-12,19.8,13.7,5.2,13.2,6.3,-0.8,82,73,51,30.19,29.92,15,5,15,0.00
2013-12-13,27.0,23.4,19.3,19.6,17.3,12.8,82,77,72,30.07,29.89,10,2,12,0.00
2013-12-14,21.8,19.1,16.9,18.2,14.1,11.2,86,81,71,30.07,29.58,7,2,8,0.00
2013-12-15,25.0,19.1,11.9,20.7,13.9,5.1,88,80,67,29.78,29.55,15,3,15,0.00
2013-12-16,26.8,15.6,9.4,15.7,8.3,4.1,81,73,60,29.93,29.77,7,1,7,0.02
2013-12-17,27.5,22.1,15.3,23.6,18.0,9.3,88,84,76,29.77,29.63,9,2,9,0.00
2013-12-18,30.6,25.8,22.1,24.4,20.9,15.4,90,82,72,29.86,29.67,12,3,13,0.00
2013-12-19,40.1,31.9,25.6,33.7,25.7,17.7,85,78,71,29.77,29.63,10,1,10,0.07
2013-12-20,34.7,33.6,32.9,32.6,31.1,29.1,92,90,85,29.71,29.52,4,0,4,0.45
2013-12-21,34.2,33.0,32.2,32.3,31.0,30.2,94,92,92,29.66,29.47,8,1,8,0.64
2013-12-22,35.8,33.4,31.7,33.1,31.2,29.4,93,92,88,29.74,29.33,12,1,12,0.29
2013-12-23,31.9,27.3,21.1,29.6,23.6,15.8,91,86,79,30.07,29.73,9,2,9,0.00
2013-12-24,21.1,13.5,7.6,15.8,8.4,2.7,86,80,73,30.29,30.04,8,2,9,0.01
2013-12-25,23.9,17.8,5.6,20.9,13.8,0.5,88,84,80,30.26,29.87,7,1,7,0.00
2013-12-26,26.8,24.9,23.6,23.4,20.2,15.8,91,82,69,30.04,29.80,12,2,12,0.00
2013-12-27,38.2,31.4,24.8,32.2,27.3,20.7,91,85,76,30.08,29.81,11,2,11,0.06
2013-12-28,47.2,39.8,34.6,36.7,32.7,29.3,82,76,65,29.89,29.68,14,4,14,0.04
2013-12-29,41.6,33.5,19.6,33.0,27.5,14.3,86,79,70,29.77,29.48,12,3,12,0.00
2013-12-30,19.8,17.7,15.1,14.4,9.3,6.0,80,69,61,30.03,29.77,8,2,8,0.00
2013-12-31,19.8,16.5,13.0,14.0,9.9,5.9,83,75,64,30.08,29.80,13,4,17,0.00
2014-1-1,15.5,13.2,10.3,11.3,7.0,3.2,83,76,67,30.16,30.01,7,2,8,0.00
2014-1-2,15.3,11.7,2.2,11.1,6.5,-4.3,83,79,73,30.01,29.84,14,4,14,0.00